Time;durP1;ratioP1;P1;durP2;ratioP2;P2;SDS_P1;SDS_P2;PMS_P1;PMS_P2;Temp;Humidity;BMP_temperature;BMP_pressure;BME280_temperature;BME280_humidity;BME280_pressure;Samples;Min_cycle;Max_cycle;Signal;HPM_P1;HPM_P2
2024/01/18 00:00:35;;;;;;;31.40;19.80;;;-1.80;99.90;;;;;;5026219;28;20037;-66
2024/01/18 00:03:02;;;;;;;27.27;21.23;;;-1.80;99.90;;;;;;5028674;28;20676;-65
2024/01/18 00:05:27;;;;;;;29.83;19.98;;;-1.80;99.90;;;;;;5022616;28;20049;-65
2024/01/18 00:07:53;;;;;;;30.00;20.17;;;-1.80;99.90;;;;;;5027253;28;20244;-65
2024/01/18 00:10:23;;;;;;;27.53;19.87;;;-1.80;99.90;;;;;;5029377;28;20407;-65
2024/01/18 00:12:49;;;;;;;27.92;18.70;;;-1.80;99.90;;;;;;5029502;28;20103;-64
2024/01/18 00:15:14;;;;;;;26.70;19.57;;;-1.80;99.90;;;;;;5031076;28;20535;-64
2024/01/18 00:17:40;;;;;;;24.60;18.33;;;-1.80;99.90;;;;;;5022916;28;20077;-64
2024/01/18 00:20:06;;;;;;;29.13;18.63;;;-1.80;99.90;;;;;;5030456;28;20052;-65
2024/01/18 00:22:31;;;;;;;31.45;21.33;;;-1.70;99.90;;;;;;5028493;28;20049;-65
2024/01/18 00:24:57;;;;;;;29.10;18.70;;;-1.80;99.90;;;;;;5031441;28;20304;-65
2024/01/18 00:27:23;;;;;;;31.83;20.57;;;-1.70;99.90;;;;;;5029593;28;20041;-66
2024/01/18 00:29:48;;;;;;;28.97;19.13;;;-1.70;99.90;;;;;;5029372;28;20033;-66
2024/01/18 00:32:14;;;;;;;38.50;21.23;;;-1.70;99.90;;;;;;5029642;28;20118;-66
2024/01/18 00:34:39;;;;;;;31.27;19.97;;;-1.80;99.90;;;;;;5030638;28;20156;-67
2024/01/18 00:37:06;;;;;;;25.93;18.33;;;-1.70;99.90;;;;;;5031117;28;20079;-66
2024/01/18 00:39:31;;;;;;;26.05;19.00;;;-1.80;99.90;;;;;;5030057;28;20045;-66
2024/01/18 00:41:57;;;;;;;27.70;18.47;;;-1.80;99.90;;;;;;5030282;28;20492;-66
2024/01/18 00:44:22;;;;;;;29.50;19.07;;;-1.80;99.90;;;;;;5030881;28;20037;-65
2024/01/18 00:46:48;;;;;;;27.17;19.53;;;-1.80;99.90;;;;;;5028529;28;20045;-66
2024/01/18 00:49:13;;;;;;;25.00;18.63;;;-1.70;99.90;;;;;;5029355;28;20107;-66
2024/01/18 00:51:39;;;;;;;28.93;20.73;;;-1.70;99.90;;;;;;5029570;28;20033;-66
2024/01/18 00:54:05;;;;;;;34.77;20.27;;;-1.70;99.90;;;;;;5027363;28;20045;-65
2024/01/18 00:56:30;;;;;;;28.43;19.33;;;-1.80;99.90;;;;;;5032088;28;20117;-66
2024/01/18 00:58:56;;;;;;;26.60;19.23;;;-1.80;99.90;;;;;;5029576;28;20423;-66
2024/01/18 01:01:22;;;;;;;25.17;19.57;;;-1.90;99.90;;;;;;5027322;28;20041;-66
2024/01/18 01:03:47;;;;;;;26.25;18.17;;;-1.80;99.90;;;;;;5029013;28;20041;-65
2024/01/18 01:06:13;;;;;;;30.03;17.47;;;-1.80;99.90;;;;;;5030714;28;20040;-65
2024/01/18 01:08:39;;;;;;;27.40;19.40;;;-1.80;99.90;;;;;;5029504;28;20451;-66
2024/01/18 01:11:08;;;;;;;24.92;18.90;;;-1.80;99.90;;;;;;5029834;28;20045;-66
2024/01/18 01:13:34;;;;;;;21.48;18.77;;;-1.90;99.90;;;;;;5027990;28;20384;-66
2024/01/18 01:15:59;;;;;;;29.23;18.35;;;-1.90;99.90;;;;;;5030399;28;20091;-67
2024/01/18 01:18:25;;;;;;;23.43;19.10;;;-1.90;99.90;;;;;;5031644;28;20498;-67
2024/01/18 01:20:51;;;;;;;28.27;18.90;;;-1.90;99.90;;;;;;5030708;28;20069;-66
2024/01/18 01:23:16;;;;;;;27.63;19.03;;;-1.90;99.90;;;;;;5032169;28;20034;-68
2024/01/18 01:25:42;;;;;;;32.27;18.80;;;-1.80;99.90;;;;;;5026559;28;20038;-67
2024/01/18 01:28:07;;;;;;;25.93;18.10;;;-1.80;99.90;;;;;;5031558;28;20037;-66
2024/01/18 01:30:33;;;;;;;27.03;18.00;;;-1.90;99.90;;;;;;5030036;28;20050;-66
2024/01/18 01:32:59;;;;;;;30.25;18.25;;;-1.80;99.90;;;;;;5031297;28;20116;-66
2024/01/18 01:35:25;;;;;;;23.07;18.37;;;-1.90;99.90;;;;;;5029704;28;20080;-66
2024/01/18 01:37:50;;;;;;;27.23;17.77;;;-1.90;99.90;;;;;;5033957;28;20157;-66
2024/01/18 01:40:16;;;;;;;29.63;18.43;;;-1.80;99.90;;;;;;5029746;28;20156;-66
2024/01/18 01:42:42;;;;;;;23.92;17.77;;;-1.90;99.90;;;;;;5032546;28;20049;-65
2024/01/18 01:45:08;;;;;;;26.63;17.17;;;-1.90;99.90;;;;;;5033962;28;20033;-65
2024/01/18 01:47:33;;;;;;;22.90;17.60;;;-1.90;99.90;;;;;;5028383;28;20510;-65
2024/01/18 01:50:00;;;;;;;23.87;16.23;;;-2.00;99.90;;;;;;5030832;28;20130;-66
2024/01/18 01:52:29;;;;;;;24.45;16.45;;;-2.00;99.90;;;;;;5032243;28;20130;-66
2024/01/18 01:54:56;;;;;;;19.23;15.82;;;-2.10;99.90;;;;;;5032008;28;20045;-67
2024/01/18 01:57:21;;;;;;;18.48;14.57;;;-2.10;99.90;;;;;;5030944;28;20025;-66
2024/01/18 01:59:47;;;;;;;23.48;15.85;;;-2.10;99.90;;;;;;5031343;28;20106;-65
2024/01/18 02:02:14;;;;;;;22.13;14.60;;;-2.20;99.90;;;;;;5028501;28;20048;-67
2024/01/18 02:04:40;;;;;;;20.92;13.68;;;-2.20;99.90;;;;;;5029273;28;20492;-66
2024/01/18 02:07:08;;;;;;;17.63;13.73;;;-2.20;99.90;;;;;;5030038;28;20043;-66
2024/01/18 02:09:34;;;;;;;19.67;13.25;;;-2.20;99.90;;;;;;5030935;28;20037;-65
2024/01/18 02:12:02;;;;;;;20.58;13.30;;;-2.20;99.90;;;;;;5031242;28;20046;-66
2024/01/18 02:14:28;;;;;;;20.13;12.30;;;-2.30;99.90;;;;;;5027858;28;20033;-67
2024/01/18 02:16:54;;;;;;;15.27;11.65;;;-2.30;99.90;;;;;;5030434;28;20030;-66
2024/01/18 02:19:19;;;;;;;17.60;11.13;;;-2.30;99.90;;;;;;5031821;28;20041;-66
2024/01/18 02:21:45;;;;;;;19.90;11.50;;;-2.30;99.90;;;;;;5034730;28;20044;-65
2024/01/18 02:24:30;;;;;;;22.47;12.03;;;-2.30;99.90;;;;;;5030809;28;20213;-64
2024/01/18 02:26:57;;;;;;;16.45;11.48;;;-2.30;99.90;;;;;;5031061;28;20041;-63
2024/01/18 02:29:22;;;;;;;15.18;11.43;;;-2.30;99.90;;;;;;5030646;28;20051;-64
2024/01/18 02:31:48;;;;;;;18.10;11.83;;;-2.30;99.90;;;;;;5031625;28;20396;-64
2024/01/18 02:34:16;;;;;;;14.47;9.60;;;-2.30;99.90;;;;;;5032415;28;20079;-64
2024/01/18 02:36:42;;;;;;;16.88;10.15;;;-2.30;99.90;;;;;;5030867;28;20037;-65
2024/01/18 02:39:08;;;;;;;17.20;10.25;;;-2.30;99.90;;;;;;5029829;28;20099;-65
2024/01/18 02:41:34;;;;;;;13.67;9.23;;;-2.20;99.90;;;;;;5028622;28;20500;-64
2024/01/18 02:44:00;;;;;;;13.07;9.10;;;-2.20;99.90;;;;;;5028668;28;20527;-64
2024/01/18 02:46:30;;;;;;;17.10;9.32;;;-2.20;99.90;;;;;;5026247;28;20045;-64
2024/01/18 02:48:55;;;;;;;12.35;7.47;;;-2.20;99.90;;;;;;5024077;28;20048;-65
2024/01/18 02:51:21;;;;;;;19.20;7.83;;;-2.20;99.90;;;;;;5029370;28;20400;-65
2024/01/18 02:53:46;;;;;;;11.70;8.30;;;-2.20;99.90;;;;;;5027987;28;20035;-64
2024/01/18 02:56:12;;;;;;;17.50;6.47;;;-2.20;99.90;;;;;;5026831;28;20113;-65
2024/01/18 02:58:37;;;;;;;10.77;6.87;;;-2.20;99.90;;;;;;5027889;28;20041;-66
2024/01/18 03:01:03;;;;;;;12.50;6.67;;;-2.20;99.90;;;;;;5027171;28;20049;-65
2024/01/18 03:03:29;;;;;;;12.27;7.13;;;-2.20;99.90;;;;;;5028978;28;20033;-65
2024/01/18 03:05:55;;;;;;;10.87;6.40;;;-2.20;99.90;;;;;;5028511;28;20527;-65
2024/01/18 03:08:20;;;;;;;14.60;6.20;;;-2.20;99.90;;;;;;5029579;28;20343;-65
2024/01/18 03:10:46;;;;;;;8.17;5.70;;;-2.20;99.90;;;;;;5029404;28;20084;-65
2024/01/18 03:13:11;;;;;;;15.97;7.43;;;-2.20;99.90;;;;;;5027805;28;20568;-64
2024/01/18 03:15:37;;;;;;;11.57;5.90;;;-2.20;99.90;;;;;;5028477;28;20535;-66
2024/01/18 03:18:03;;;;;;;10.83;6.07;;;-2.20;99.90;;;;;;5029257;28;20416;-65
2024/01/18 03:20:28;;;;;;;10.65;6.40;;;-2.20;99.90;;;;;;5029663;28;20048;-66
2024/01/18 03:22:54;;;;;;;6.33;5.23;;;-2.20;99.90;;;;;;5028360;28;20048;-66
2024/01/18 03:25:20;;;;;;;8.77;5.40;;;-2.20;99.90;;;;;;5028780;28;20037;-65
2024/01/18 03:27:46;;;;;;;10.07;4.97;;;-2.30;99.90;;;;;;5030165;28;20053;-66
2024/01/18 03:30:11;;;;;;;7.13;4.40;;;-2.30;99.90;;;;;;5028482;28;20128;-65
2024/01/18 03:32:37;;;;;;;8.07;4.70;;;-2.30;99.90;;;;;;5028495;28;20048;-66
2024/01/18 03:35:03;;;;;;;7.50;4.73;;;-2.30;99.90;;;;;;5029033;28;20486;-64
2024/01/18 03:37:29;;;;;;;7.53;3.90;;;-2.30;99.90;;;;;;5030241;28;20587;-64
2024/01/18 03:39:55;;;;;;;7.47;5.27;;;-2.30;99.90;;;;;;5028723;28;20037;-65
2024/01/18 03:42:20;;;;;;;9.95;4.15;;;-2.30;99.90;;;;;;5030423;28;20059;-65
2024/01/18 03:44:46;;;;;;;11.67;4.00;;;-2.40;99.90;;;;;;5029245;28;20503;-64
2024/01/18 03:47:12;;;;;;;7.03;4.30;;;-2.40;99.90;;;;;;5033558;28;20032;-65
2024/01/18 03:49:37;;;;;;;11.27;3.53;;;-2.40;99.90;;;;;;5031069;28;20540;-65
2024/01/18 03:52:03;;;;;;;5.53;3.20;;;-2.40;99.90;;;;;;5027798;28;20041;-66
2024/01/18 03:54:29;;;;;;;6.40;3.40;;;-2.40;99.90;;;;;;5024796;28;20429;-65
2024/01/18 03:56:54;;;;;;;5.57;3.47;;;-2.50;99.90;;;;;;5025535;28;20061;-66
2024/01/18 03:59:20;;;;;;;5.90;2.80;;;-2.50;99.90;;;;;;5028744;28;20041;-65
2024/01/18 04:01:46;;;;;;;4.60;2.93;;;-2.50;99.90;;;;;;5025826;28;20044;-65
2024/01/18 04:04:12;;;;;;;12.00;3.35;;;-2.50;99.90;;;;;;5028720;28;20530;-65
2024/01/18 04:06:38;;;;;;;5.63;3.05;;;-2.50;99.90;;;;;;5028625;28;20049;-65
2024/01/18 04:09:06;;;;;;;5.23;3.43;;;-2.50;99.90;;;;;;5031238;28;20040;-66
2024/01/18 04:11:31;;;;;;;5.78;2.72;;;-2.50;99.90;;;;;;5027415;28;20439;-66
2024/01/18 04:13:57;;;;;;;5.10;2.73;;;-2.50;99.90;;;;;;5026422;28;20033;-65
2024/01/18 04:16:23;;;;;;;6.10;3.00;;;-2.50;99.90;;;;;;5029367;28;20272;-64
2024/01/18 04:18:48;;;;;;;8.00;3.60;;;-2.50;99.90;;;;;;5029447;28;20030;-65
2024/01/18 04:21:14;;;;;;;7.60;3.23;;;-2.50;99.90;;;;;;5028990;28;20068;-66
2024/01/18 04:23:40;;;;;;;14.27;3.58;;;-2.60;99.90;;;;;;5027530;28;20029;-65
2024/01/18 04:26:05;;;;;;;3.83;2.67;;;-2.60;99.90;;;;;;5030391;28;20037;-65
2024/01/18 04:28:31;;;;;;;4.87;2.13;;;-2.60;99.90;;;;;;5026319;28;20041;-65
2024/01/18 04:30:57;;;;;;;5.03;2.20;;;-2.60;99.90;;;;;;5026966;28;20076;-65
2024/01/18 04:33:23;;;;;;;8.57;2.17;;;-2.60;99.90;;;;;;5027710;28;20474;-65
2024/01/18 04:35:49;;;;;;;;;;;-2.60;99.90;;;;;;5027415;28;20030;-65
2024/01/18 04:38:14;;;;;;;3.83;2.60;;;-2.60;99.90;;;;;;5029794;28;19923;-65
2024/01/18 04:40:40;;;;;;;7.80;3.13;;;-2.70;99.90;;;;;;5027320;28;20044;-65
2024/01/18 04:43:06;;;;;;;3.93;2.70;;;-2.70;99.90;;;;;;5030006;28;20034;-65
2024/01/18 04:45:31;;;;;;;7.10;2.47;;;-2.70;99.90;;;;;;5029730;28;20038;-65
2024/01/18 04:47:58;;;;;;;6.73;2.70;;;-2.70;99.90;;;;;;5029952;28;20269;-65
2024/01/18 04:50:26;;;;;;;;;;;-2.80;99.90;;;;;;5027849;28;20045;-67
2024/01/18 04:52:52;;;;;;;5.25;3.97;;;-2.80;99.90;;;;;;5031343;28;20185;-65
2024/01/18 04:55:18;;;;;;;8.70;2.53;;;-2.80;99.90;;;;;;5033350;28;20104;-65
2024/01/18 04:57:44;;;;;;;4.97;2.72;;;-2.80;99.90;;;;;;5034864;28;20412;-65
2024/01/18 05:00:11;;;;;;;6.20;2.70;;;-2.80;99.90;;;;;;5030392;28;20961;-65
2024/01/18 05:02:37;;;;;;;;;;;-2.80;99.90;;;;;;5030762;28;20037;-64
2024/01/18 05:05:03;;;;;;;3.88;2.38;;;-2.90;99.90;;;;;;5027375;28;20010;-65
2024/01/18 05:07:28;;;;;;;7.63;2.70;;;-2.80;99.90;;;;;;5028533;28;20128;-65
2024/01/18 05:09:54;;;;;;;8.33;3.70;;;-2.80;99.90;;;;;;5026755;28;20044;-66
2024/01/18 05:12:20;;;;;;;10.43;4.87;;;-2.80;99.90;;;;;;5029618;28;20041;-65
2024/01/18 05:14:45;;;;;;;7.22;2.97;;;-2.80;99.90;;;;;;5028118;28;20057;-65
2024/01/18 05:17:12;;;;;;;4.30;3.05;;;-2.80;99.90;;;;;;5028443;28;20029;-65
2024/01/18 05:19:39;;;;;;;5.53;2.92;;;-2.80;99.90;;;;;;5029152;28;20506;-65
2024/01/18 05:22:04;;;;;;;4.25;2.30;;;-2.70;99.90;;;;;;5032366;28;20416;-65
2024/01/18 05:24:33;;;;;;;6.43;2.90;;;-2.70;99.90;;;;;;5031089;28;20049;-64
2024/01/18 05:26:58;;;;;;;6.03;2.60;;;-2.80;99.90;;;;;;5030928;28;20076;-66
2024/01/18 05:29:24;;;;;;;7.63;2.80;;;-2.80;99.90;;;;;;5031506;28;20080;-65
2024/01/18 05:31:49;;;;;;;4.10;2.58;;;-2.80;99.90;;;;;;5028470;28;20056;-66
2024/01/18 05:34:15;;;;;;;7.57;2.97;;;-2.70;99.90;;;;;;5030530;28;20087;-65
2024/01/18 05:36:41;;;;;;;8.13;2.40;;;-2.80;99.90;;;;;;5030493;28;20025;-65
2024/01/18 05:39:06;;;;;;;3.13;2.30;;;-2.80;99.90;;;;;;5028794;28;20041;-65
2024/01/18 05:41:32;;;;;;;2.03;1.83;;;-2.80;99.90;;;;;;5029217;28;20087;-65
2024/01/18 05:43:58;;;;;;;4.47;1.97;;;-2.80;99.90;;;;;;5032038;28;20427;-66
2024/01/18 05:46:23;;;;;;;2.87;1.90;;;-2.80;99.90;;;;;;5030403;28;20037;-65
2024/01/18 05:48:50;;;;;;;6.73;2.70;;;-2.80;99.90;;;;;;5029486;28;20125;-66
2024/01/18 05:51:15;;;;;;;;;;;-2.90;99.90;;;;;;5029095;28;20685;-64
2024/01/18 05:53:42;;;;;;;6.93;3.00;;;-2.80;99.90;;;;;;5030114;28;19917;-68
2024/01/18 05:56:08;;;;;;;4.80;2.00;;;-2.90;99.90;;;;;;5028687;28;20041;-65
2024/01/18 05:58:34;;;;;;;5.30;2.03;;;-2.90;99.90;;;;;;5027526;28;20172;-65
2024/01/18 06:01:00;;;;;;;3.00;2.50;;;-2.90;99.90;;;;;;5030601;28;20045;-65
2024/01/18 06:03:27;;;;;;;3.40;2.40;;;-2.90;99.90;;;;;;5029702;28;20037;-65
2024/01/18 06:05:54;;;;;;;3.35;1.80;;;-2.90;99.90;;;;;;5031420;28;20171;-65
2024/01/18 06:08:19;;;;;;;;;;;-2.90;99.90;;;;;;5029031;28;20042;-65
2024/01/18 06:10:45;;;;;;;5.72;1.58;;;-3.00;99.90;;;;;;5031402;28;19936;-65
2024/01/18 06:13:11;;;;;;;4.90;1.97;;;-3.00;99.90;;;;;;5031976;28;20045;-66
2024/01/18 06:15:36;;;;;;;3.70;1.30;;;-2.90;99.90;;;;;;5029251;28;20283;-65
2024/01/18 06:18:03;;;;;;;5.20;1.47;;;-2.90;99.90;;;;;;5029084;28;20400;-65
2024/01/18 06:20:29;;;;;;;3.85;1.30;;;-3.00;99.90;;;;;;5027413;28;20045;-66
2024/01/18 06:22:55;;;;;;;3.95;1.75;;;-3.00;99.90;;;;;;5029797;28;20044;-66
2024/01/18 06:25:21;;;;;;;3.90;1.10;;;-2.90;99.90;;;;;;5028344;28;20029;-66
2024/01/18 06:27:46;;;;;;;2.70;0.80;;;-2.90;99.90;;;;;;5027598;28;20037;-64
2024/01/18 06:30:13;;;;;;;1.30;1.20;;;-2.90;99.90;;;;;;5028814;28;20037;-64
2024/01/18 06:32:38;;;;;;;3.60;1.60;;;-2.90;99.90;;;;;;5036183;28;20034;-65
2024/01/18 06:35:04;;;;;;;3.70;1.80;;;-2.90;99.90;;;;;;5032263;28;21290;-64
2024/01/18 06:37:31;;;;;;;2.03;1.33;;;-2.90;99.90;;;;;;5005447;28;20034;-65
2024/01/18 06:39:57;;;;;;;3.75;2.13;;;-2.90;99.90;;;;;;5027738;28;20041;-64
2024/01/18 06:42:23;;;;;;;2.57;1.30;;;-2.90;99.90;;;;;;5027972;28;20506;-65
2024/01/18 06:44:48;;;;;;;3.40;1.30;;;-2.90;99.90;;;;;;5027880;28;20038;-65
2024/01/18 06:47:14;;;;;;;5.57;1.95;;;-3.00;99.90;;;;;;5029647;28;20044;-65
2024/01/18 06:49:40;;;;;;;3.63;1.43;;;-3.00;99.90;;;;;;5028722;28;20511;-66
2024/01/18 06:52:05;;;;;;;5.93;1.30;;;-3.00;99.90;;;;;;5026873;28;20307;-65
2024/01/18 06:54:31;;;;;;;3.67;1.37;;;-2.90;99.90;;;;;;5028174;28;20098;-65
2024/01/18 06:56:57;;;;;;;8.47;1.40;;;-3.00;99.90;;;;;;5028507;28;20097;-65
2024/01/18 06:59:22;;;;;;;3.53;1.33;;;-3.00;99.90;;;;;;5027947;28;20049;-65
2024/01/18 07:01:48;;;;;;;1.27;1.00;;;-3.00;99.90;;;;;;5026907;28;20409;-64
2024/01/18 07:04:14;;;;;;;4.83;0.90;;;-3.00;99.90;;;;;;5028534;28;20112;-65
2024/01/18 07:06:39;;;;;;;1.47;1.30;;;-3.00;99.90;;;;;;5028414;28;20080;-65
2024/01/18 07:09:06;;;;;;;3.30;1.37;;;-3.00;99.90;;;;;;5028606;28;20056;-65
2024/01/18 07:11:32;;;;;;;6.40;1.80;;;-3.00;99.90;;;;;;5026274;28;20436;-65
2024/01/18 07:13:57;;;;;;;3.93;2.50;;;-3.00;99.90;;;;;;5028244;28;20029;-65
2024/01/18 07:16:25;;;;;;;5.47;2.03;;;-3.00;99.90;;;;;;5030168;28;20462;-65
2024/01/18 07:18:50;;;;;;;4.15;1.15;;;-3.00;99.90;;;;;;5028485;28;20405;-64
2024/01/18 07:21:16;;;;;;;7.93;2.13;;;-3.00;99.90;;;;;;5027637;28;20049;-65
2024/01/18 07:23:42;;;;;;;2.27;1.20;;;-3.00;99.90;;;;;;5027055;28;20466;-65
2024/01/18 07:26:07;;;;;;;2.30;1.50;;;-3.00;99.90;;;;;;5026057;28;20595;-65
2024/01/18 07:28:33;;;;;;;5.80;1.03;;;-3.00;99.90;;;;;;5025894;28;20099;-65
2024/01/18 07:31:00;;;;;;;2.53;0.83;;;-3.00;99.90;;;;;;5026244;28;20037;-65
2024/01/18 07:33:26;;;;;;;4.22;1.63;;;-3.00;99.90;;;;;;5027427;28;20508;-65
2024/01/18 07:35:52;;;;;;;6.73;1.03;;;-3.00;99.90;;;;;;5031388;28;20124;-65
2024/01/18 07:38:17;;;;;;;2.70;1.17;;;-3.00;99.90;;;;;;5024440;28;20025;-64
2024/01/18 07:40:43;;;;;;;4.00;1.10;;;-3.00;99.90;;;;;;5026785;28;20066;-66
2024/01/18 07:43:08;;;;;;;7.73;1.30;;;-3.00;99.90;;;;;;5025902;28;20408;-65
2024/01/18 07:45:34;;;;;;;4.13;1.00;;;-3.00;99.90;;;;;;5024387;28;20068;-65
2024/01/18 07:48:00;;;;;;;10.40;0.87;;;-3.00;99.90;;;;;;5026957;28;20451;-65
2024/01/18 07:50:27;;;;;;;5.35;0.90;;;-2.90;99.90;;;;;;5025411;28;20412;-66
2024/01/18 07:52:52;;;;;;;4.15;1.00;;;-3.00;99.90;;;;;;5025925;28;20426;-65
2024/01/18 07:55:18;;;;;;;4.27;1.10;;;-2.90;99.90;;;;;;5029932;28;20118;-67
2024/01/18 07:57:44;;;;;;;4.10;0.88;;;-2.80;99.90;;;;;;5027970;28;20060;-65
2024/01/18 08:00:10;;;;;;;6.13;0.80;;;-2.60;99.90;;;;;;5028126;28;20068;-65
2024/01/18 08:02:36;;;;;;;2.08;0.82;;;-2.30;99.90;;;;;;5028090;28;20083;-65
2024/01/18 08:05:01;;;;;;;1.97;0.80;;;-2.10;99.90;;;;;;5024589;28;20520;-64
2024/01/18 08:07:27;;;;;;;2.23;1.30;;;-1.90;99.90;;;;;;5025968;28;20150;-65
2024/01/18 08:09:53;;;;;;;6.03;1.20;;;-1.80;99.90;;;;;;5022898;28;20041;-65
2024/01/18 08:12:18;;;;;;;9.13;1.30;;;-1.40;99.90;;;;;;5016524;28;20125;-65
2024/01/18 08:14:44;;;;;;;4.13;1.20;;;-0.70;99.90;;;;;;5027270;28;20037;-65
2024/01/18 08:17:10;;;;;;;2.70;1.30;;;0.10;99.90;;;;;;5028191;28;20283;-65
2024/01/18 08:19:38;;;;;;;8.10;1.20;;;1.10;99.90;;;;;;5025437;28;20041;-65
2024/01/18 08:22:04;;;;;;;3.58;0.70;;;2.00;99.90;;;;;;5023691;28;20069;-66
2024/01/18 08:24:29;;;;;;;3.20;1.30;;;2.80;99.90;;;;;;5028663;28;20524;-66
2024/01/18 08:26:55;;;;;;;1.60;0.97;;;3.60;99.90;;;;;;5027204;28;20036;-66
2024/01/18 08:29:20;;;;;;;3.63;0.90;;;4.30;99.90;;;;;;5023313;28;20094;-66
2024/01/18 08:31:46;;;;;;;3.97;0.70;;;5.00;99.90;;;;;;5026031;28;20045;-66
2024/01/18 08:34:12;;;;;;;4.18;1.27;;;5.50;99.90;;;;;;5025966;28;20116;-66
2024/01/18 08:36:38;;;;;;;4.53;0.65;;;5.90;99.90;;;;;;5026404;28;20453;-66
2024/01/18 08:39:03;;;;;;;3.63;1.27;;;6.50;99.90;;;;;;5025620;28;20043;-66
2024/01/18 08:41:29;;;;;;;3.00;0.80;;;6.90;99.90;;;;;;5026874;28;20052;-64
2024/01/18 08:43:54;;;;;;;2.57;0.60;;;7.40;99.90;;;;;;5026156;28;20116;-64
2024/01/18 08:46:20;;;;;;;1.27;0.70;;;7.90;99.90;;;;;;5029216;28;20049;-66
2024/01/18 08:48:45;;;;;;;1.37;0.93;;;8.50;99.90;;;;;;5028896;28;20073;-65
2024/01/18 08:51:14;;;;;;;1.20;0.50;;;9.00;99.90;;;;;;5012912;28;20403;-65
2024/01/18 08:53:40;;;;;;;1.75;0.57;;;9.40;99.90;;;;;;5027645;28;20511;-66
2024/01/18 08:56:06;;;;;;;2.42;0.60;;;9.80;99.90;;;;;;5031917;28;20040;-65
2024/01/18 08:58:32;;;;;;;2.53;0.95;;;10.20;99.90;;;;;;5029862;28;20462;-66
2024/01/18 09:00:58;;;;;;;2.35;0.47;;;10.70;99.90;;;;;;5032955;28;20138;-64
2024/01/18 09:03:24;;;;;;;2.70;0.57;;;10.90;99.90;;;;;;5029820;28;20044;-64
2024/01/18 09:05:50;;;;;;;0.80;0.35;;;11.50;99.90;;;;;;5031119;28;20041;-64
2024/01/18 09:08:15;;;;;;;;;;;11.50;98.70;;;;;;5027205;28;20038;-64
2024/01/18 09:10:41;;;;;;;2.55;0.75;;;11.00;97.60;;;;;;5029518;28;19936;-64
2024/01/18 09:13:07;;;;;;;3.22;0.38;;;10.80;98.30;;;;;;5028355;28;20040;-65
2024/01/18 09:15:34;;;;;;;3.30;0.60;;;11.10;98.40;;;;;;5031081;28;20033;-65
2024/01/18 09:18:01;;;;;;;2.35;0.50;;;11.70;98.30;;;;;;5031889;28;20041;-67
2024/01/18 09:20:26;;;;;;;1.65;0.40;;;12.50;98.20;;;;;;5030512;28;20417;-65
2024/01/18 09:22:52;;;;;;;4.40;0.50;;;12.90;97.20;;;;;;5032402;28;20041;-66
2024/01/18 09:25:18;;;;;;;2.20;0.85;;;13.40;96.00;;;;;;5030745;28;20515;-65
2024/01/18 09:27:44;;;;;;;3.28;0.60;;;13.90;94.90;;;;;;5031096;28;20033;-63
2024/01/18 09:30:10;;;;;;;7.85;0.77;;;14.30;94.40;;;;;;5047776;28;20065;-65
2024/01/18 09:32:36;;;;;;;2.25;0.40;;;14.60;92.70;;;;;;5031558;28;20480;-65
2024/01/18 09:35:05;;;;;;;2.35;0.47;;;14.60;91.20;;;;;;5031352;28;20026;-66
2024/01/18 09:37:31;;;;;;;2.88;0.50;;;14.70;90.40;;;;;;5029240;28;20045;-67
2024/01/18 09:39:57;;;;;;;7.38;0.75;;;14.80;88.40;;;;;;5029852;28;20075;-67
2024/01/18 09:42:30;;;;;;;2.08;0.60;;;14.70;87.40;;;;;;5027312;28;20495;-67
2024/01/18 09:45:08;;;;;;;2.55;0.50;;;14.80;86.70;;;;;;5025361;28;20068;-67
2024/01/18 09:47:34;;;;;;;2.60;0.50;;;14.90;85.10;;;;;;5032366;28;20116;-67
2024/01/18 09:50:00;;;;;;;1.00;0.40;;;14.70;82.50;;;;;;5024183;28;20155;-66
2024/01/18 09:52:25;;;;;;;2.03;0.65;;;14.40;82.10;;;;;;5027883;28;20057;-67
2024/01/18 09:54:51;;;;;;;2.55;0.45;;;14.50;81.60;;;;;;5028312;28;20552;-66
2024/01/18 09:57:25;;;;;;;4.68;0.45;;;14.70;82.30;;;;;;5030151;28;20055;-69
2024/01/18 09:59:56;;;;;;;3.60;0.60;;;14.90;81.50;;;;;;5029133;28;20451;-63
2024/01/18 10:02:22;;;;;;;1.45;0.40;;;15.10;80.40;;;;;;5030816;28;20029;-67
2024/01/18 10:04:49;;;;;;;4.60;0.57;;;14.90;78.40;;;;;;5031677;28;20478;-67
2024/01/18 10:07:15;;;;;;;2.15;0.68;;;14.30;77.70;;;;;;5035306;28;20396;-67
2024/01/18 10:09:41;;;;;;;2.22;0.73;;;13.50;78.30;;;;;;5027697;28;20561;-66
2024/01/18 10:12:06;;;;;;;6.32;0.47;;;13.00;80.70;;;;;;5033845;28;20041;-67
2024/01/18 10:14:43;;;;;;;1.48;0.57;;;13.10;81.60;;;;;;5030306;28;20033;-66
2024/01/18 10:17:23;;;;;;;2.42;0.70;;;13.50;81.10;;;;;;5028997;28;20045;-66
2024/01/18 10:19:55;;;;;;;1.73;0.50;;;13.80;80.10;;;;;;5030067;28;20029;-67
2024/01/18 10:22:22;;;;;;;3.22;0.60;;;14.30;79.80;;;;;;5027561;28;20041;-66
2024/01/18 10:24:47;;;;;;;;;;;14.60;79.90;;;;;;5027366;28;20044;-66
2024/01/18 10:27:13;;;;;;;1.42;0.35;;;15.10;77.90;;;;;;5022583;28;19924;-66
2024/01/18 10:29:40;;;;;;;2.70;0.80;;;15.50;78.60;;;;;;5025712;28;20046;-66
2024/01/18 10:32:08;;;;;;;5.90;0.80;;;15.90;78.00;;;;;;5028699;28;20049;-66
2024/01/18 10:34:37;;;;;;;1.50;0.35;;;16.30;77.00;;;;;;5028321;28;20034;-66
2024/01/18 10:37:04;;;;;;;1.80;0.50;;;16.00;74.90;;;;;;5026324;28;20136;-66
2024/01/18 10:39:39;;;;;;;;;;;15.10;73.50;;;;;;5025643;28;20033;-66
2024/01/18 10:42:12;;;;;;;2.35;0.50;;;14.00;73.70;;;;;;5032031;28;19916;-66
2024/01/18 10:44:43;;;;;;;1.33;0.50;;;13.40;76.00;;;;;;5030459;28;20625;-66
2024/01/18 10:47:13;;;;;;;2.05;0.50;;;13.20;77.00;;;;;;5024357;28;20042;-66
2024/01/18 10:49:43;;;;;;;3.78;0.50;;;13.60;78.40;;;;;;5026443;28;20528;-66
2024/01/18 10:52:10;;;;;;;2.45;0.45;;;14.00;76.60;;;;;;5029206;28;20435;-66
2024/01/18 10:54:37;;;;;;;1.60;0.30;;;14.50;77.50;;;;;;5029985;28;20037;-66
2024/01/18 10:57:03;;;;;;;1.08;0.32;;;14.80;76.50;;;;;;5032493;28;20030;-66
2024/01/18 10:59:29;;;;;;;3.10;0.40;;;15.20;76.00;;;;;;5024952;28;20040;-66
2024/01/18 11:01:58;;;;;;;;;;;15.70;75.70;;;;;;5025454;28;20047;-66
2024/01/18 11:04:29;;;;;;;3.67;0.52;;;15.80;74.70;;;;;;5011072;28;19983;-66
2024/01/18 11:06:56;;;;;;;0.50;0.20;;;16.00;74.20;;;;;;5029565;28;20041;-66
2024/01/18 11:09:30;;;;;;;2.03;0.43;;;15.90;73.70;;;;;;5029446;28;20042;-66
2024/01/18 11:11:56;;;;;;;2.30;0.57;;;15.60;73.80;;;;;;5028158;28;20037;-66
2024/01/18 11:14:24;;;;;;;2.03;0.30;;;15.30;74.00;;;;;;5026498;28;20378;-66
2024/01/18 11:16:50;;;;;;;3.50;0.40;;;14.80;73.90;;;;;;5029975;28;20046;-66
2024/01/18 11:19:44;;;;;;;2.45;0.40;;;14.20;74.80;;;;;;5027520;28;20048;-66
2024/01/18 11:22:30;;;;;;;2.72;0.60;;;13.50;74.60;;;;;;5029044;28;20059;-66
2024/01/18 11:25:22;;;;;;;1.20;0.35;;;13.20;75.80;;;;;;5011810;28;20056;-66
2024/01/18 11:27:47;;;;;;;4.25;0.70;;;13.00;76.80;;;;;;5021878;28;20123;-66
2024/01/18 11:30:35;;;;;;;4.05;0.80;;;13.30;77.80;;;;;;5025595;28;20460;-66
2024/01/18 11:33:02;;;;;;;3.08;0.30;;;13.80;77.40;;;;;;5028857;28;20119;-66
2024/01/18 11:35:29;;;;;;;1.58;0.35;;;14.40;77.50;;;;;;5021367;28;20103;-66
2024/01/18 11:38:20;;;;;;;1.73;0.45;;;14.90;76.70;;;;;;5022549;28;20041;-66
2024/01/18 11:40:46;;;;;;;4.30;0.50;;;15.30;75.80;;;;;;5026963;28;20037;-66
2024/01/18 11:43:12;;;;;;;;;;;15.70;75.80;;;;;;5028273;28;20162;-67
2024/01/18 11:45:38;;;;;;;2.72;0.25;;;15.60;74.90;;;;;;5023790;28;20397;-67
2024/01/18 11:48:04;;;;;;;4.03;0.50;;;15.40;75.10;;;;;;5010823;28;20168;-67
2024/01/18 11:50:30;;;;;;;1.45;0.20;;;15.10;75.10;;;;;;5022701;28;20057;-67
2024/01/18 11:52:56;;;;;;;3.65;0.40;;;14.80;75.70;;;;;;5026119;28;20504;-66
2024/01/18 11:55:23;;;;;;;2.35;0.40;;;14.30;75.80;;;;;;5022036;28;20038;-67
2024/01/18 11:57:51;;;;;;;1.50;0.20;;;13.80;76.60;;;;;;5027955;28;20123;-67
2024/01/18 12:00:18;;;;;;;0.75;0.20;;;13.20;76.50;;;;;;5027653;28;20029;-66
2024/01/18 12:02:44;;;;;;;1.33;0.30;;;13.10;77.80;;;;;;5022804;28;20041;-66
2024/01/18 12:05:10;;;;;;;2.28;0.30;;;13.70;78.60;;;;;;5025877;28;20618;-67
2024/01/18 12:07:38;;;;;;;2.85;0.25;;;14.70;77.80;;;;;;5028140;28;20116;-67
2024/01/18 12:10:06;;;;;;;1.58;0.20;;;15.50;76.20;;;;;;5027746;28;20097;-67
2024/01/18 12:12:32;;;;;;;4.07;0.20;;;15.90;75.30;;;;;;5026464;28;20037;-67
2024/01/18 12:14:57;;;;;;;0.85;0.20;;;16.30;74.40;;;;;;5029367;28;20034;-67
2024/01/18 12:17:23;;;;;;;2.13;0.30;;;17.10;73.70;;;;;;5027492;28;20105;-67
2024/01/18 12:19:49;;;;;;;2.00;0.20;;;17.90;73.20;;;;;;5023729;28;20390;-67
2024/01/18 12:22:18;;;;;;;2.17;0.20;;;18.70;72.10;;;;;;5027562;28;20044;-67
2024/01/18 12:24:49;;;;;;;0.88;0.20;;;18.90;69.70;;;;;;5028863;28;20051;-67
2024/01/18 12:27:15;;;;;;;2.50;0.52;;;19.20;69.30;;;;;;5026984;28;20056;-67
2024/01/18 12:29:42;;;;;;;0.70;0.20;;;19.70;68.00;;;;;;5027967;28;20573;-67
2024/01/18 12:32:08;;;;;;;0.93;0.40;;;20.40;67.80;;;;;;5028948;28;20183;-67
2024/01/18 12:34:35;;;;;;;2.47;0.30;;;21.00;65.90;;;;;;5027960;28;20048;-68
2024/01/18 12:37:02;;;;;;;1.92;0.40;;;21.50;65.00;;;;;;5029827;28;20516;-67
2024/01/18 12:39:28;;;;;;;2.28;0.30;;;21.50;64.10;;;;;;5027943;28;20042;-66
2024/01/18 12:41:55;;;;;;;1.67;0.25;;;21.10;63.00;;;;;;5027598;28;20029;-69